sensor_id;sensor_type;location;lat;lon;timestamp;pressure;altitude;pressure_sealevel;temperature;humidity
59055;BME280;44845;51.444;7.460;2023-04-09T00:02:12;100691.59;;;6.26;76.72
59055;BME280;44845;51.444;7.460;2023-04-09T00:04:38;100690.81;;;6.28;76.54
59055;BME280;44845;51.444;7.460;2023-04-09T00:07:03;100690.69;;;6.24;76.42
59055;BME280;44845;51.444;7.460;2023-04-09T00:09:28;100687.06;;;6.17;76.39
59055;BME280;44845;51.444;7.460;2023-04-09T00:11:54;100696.59;;;6.16;76.66
59055;BME280;44845;51.444;7.460;2023-04-09T00:14:21;100689.47;;;6.09;75.75
59055;BME280;44845;51.444;7.460;2023-04-09T00:16:46;100692.03;;;6.07;75.66
59055;BME280;44845;51.444;7.460;2023-04-09T00:19:12;100697.16;;;6.04;75.15
59055;BME280;44845;51.444;7.460;2023-04-09T00:21:37;100696.19;;;6.01;75.36
59055;BME280;44845;51.444;7.460;2023-04-09T00:24:02;100690.84;;;5.94;75.11
59055;BME280;44845;51.444;7.460;2023-04-09T00:26:28;100692.34;;;5.86;75.57
59055;BME280;44845;51.444;7.460;2023-04-09T00:28:53;100689.75;;;5.86;75.52
59055;BME280;44845;51.444;7.460;2023-04-09T00:31:19;100693.97;;;5.81;75.47
59055;BME280;44845;51.444;7.460;2023-04-09T00:33:44;100686.13;;;5.79;75.49
59055;BME280;44845;51.444;7.460;2023-04-09T00:36:10;100684.25;;;5.73;75.41
59055;BME280;44845;51.444;7.460;2023-04-09T00:38:35;100690.31;;;5.72;75.56
59055;BME280;44845;51.444;7.460;2023-04-09T00:41:00;100688.44;;;5.68;75.44
59055;BME280;44845;51.444;7.460;2023-04-09T00:43:26;100689.22;;;5.64;75.97
59055;BME280;44845;51.444;7.460;2023-04-09T00:45:51;100683.91;;;5.61;76.00
59055;BME280;44845;51.444;7.460;2023-04-09T00:48:17;100684.59;;;5.54;76.30
59055;BME280;44845;51.444;7.460;2023-04-09T00:50:42;100677.66;;;5.52;76.29
59055;BME280;44845;51.444;7.460;2023-04-09T00:53:09;100677.72;;;5.56;75.81
59055;BME280;44845;51.444;7.460;2023-04-09T00:55:34;100679.38;;;5.54;75.86
59055;BME280;44845;51.444;7.460;2023-04-09T00:58:00;100674.97;;;5.51;75.98
59055;BME280;44845;51.444;7.460;2023-04-09T01:00:26;100680.97;;;5.47;76.12
59055;BME280;44845;51.444;7.460;2023-04-09T01:02:52;100674.03;;;5.47;75.84
59055;BME280;44845;51.444;7.460;2023-04-09T01:05:18;100686.03;;;5.42;75.94
59055;BME280;44845;51.444;7.460;2023-04-09T01:08:29;100680.84;;;5.42;75.85
59055;BME280;44845;51.444;7.460;2023-04-09T01:11:01;100680.72;;;5.37;75.86
59055;BME280;44845;51.444;7.460;2023-04-09T01:13:43;100680.75;;;5.39;75.64
59055;BME280;44845;51.444;7.460;2023-04-09T01:16:12;100679.84;;;5.38;75.57
59055;BME280;44845;51.444;7.460;2023-04-09T01:18:58;100676.44;;;5.39;75.33
59055;BME280;44845;51.444;7.460;2023-04-09T01:21:29;100685.00;;;5.35;75.40
59055;BME280;44845;51.444;7.460;2023-04-09T01:24:15;100683.09;;;5.29;75.48
59055;BME280;44845;51.444;7.460;2023-04-09T01:27:02;100687.28;;;5.24;75.58
59055;BME280;44845;51.444;7.460;2023-04-09T01:29:31;100683.69;;;5.19;75.74
59055;BME280;44845;51.444;7.460;2023-04-09T01:31:58;100687.97;;;5.17;75.77
59055;BME280;44845;51.444;7.460;2023-04-09T01:34:25;100683.53;;;5.13;76.38
59055;BME280;44845;51.444;7.460;2023-04-09T01:36:54;100678.31;;;5.13;76.09
59055;BME280;44845;51.444;7.460;2023-04-09T01:39:21;100685.28;;;5.14;76.31
59055;BME280;44845;51.444;7.460;2023-04-09T01:41:48;100681.75;;;5.12;76.41
59055;BME280;44845;51.444;7.460;2023-04-09T01:44:14;100678.31;;;5.13;76.07
59055;BME280;44845;51.444;7.460;2023-04-09T01:46:41;100683.56;;;5.14;76.01
59055;BME280;44845;51.444;7.460;2023-04-09T01:49:06;100681.69;;;5.09;75.75
59055;BME280;44845;51.444;7.460;2023-04-09T01:51:33;100676.47;;;5.09;75.87
59055;BME280;44845;51.444;7.460;2023-04-09T01:53:59;100679.16;;;5.12;75.78
59055;BME280;44845;51.444;7.460;2023-04-09T01:56:24;100677.28;;;5.06;75.51
59055;BME280;44845;51.444;7.460;2023-04-09T01:58:50;100679.16;;;5.12;75.40
59055;BME280;44845;51.444;7.460;2023-04-09T02:01:31;100684.31;;;5.10;75.28
59055;BME280;44845;51.444;7.460;2023-04-09T02:04:08;100674.72;;;5.07;75.43
59055;BME280;44845;51.444;7.460;2023-04-09T02:07:13;100682.47;;;5.06;75.30
59055;BME280;44845;51.444;7.460;2023-04-09T02:09:44;100678.06;;;5.03;75.42
59055;BME280;44845;51.444;7.460;2023-04-09T02:12:12;100680.53;;;4.99;75.35
59055;BME280;44845;51.444;7.460;2023-04-09T02:14:39;100673.59;;;4.99;75.51
59055;BME280;44845;51.444;7.460;2023-04-09T02:17:05;100672.50;;;4.91;75.59
59055;BME280;44845;51.444;7.460;2023-04-09T02:19:47;100669.00;;;4.89;75.87
59055;BME280;44845;51.444;7.460;2023-04-09T02:22:14;100668.88;;;4.84;76.25
59055;BME280;44845;51.444;7.460;2023-04-09T02:24:39;100670.47;;;4.80;76.33
59055;BME280;44845;51.444;7.460;2023-04-09T02:27:06;100667.22;;;4.88;75.97
59055;BME280;44845;51.444;7.460;2023-04-09T02:29:31;100668.00;;;4.85;75.79
59055;BME280;44845;51.444;7.460;2023-04-09T02:31:57;100669.00;;;4.89;75.08
59055;BME280;44845;51.444;7.460;2023-04-09T02:34:22;100669.00;;;4.89;75.39
59055;BME280;44845;51.444;7.460;2023-04-09T02:36:48;100665.41;;;4.85;74.91
59055;BME280;44845;51.444;7.460;2023-04-09T02:39:13;100661.88;;;4.81;74.93
59055;BME280;44845;51.444;7.460;2023-04-09T02:41:39;100658.25;;;4.76;75.28
59055;BME280;44845;51.444;7.460;2023-04-09T02:44:04;100656.47;;;4.75;75.29
59055;BME280;44845;51.444;7.460;2023-04-09T02:46:29;100654.72;;;4.74;75.37
59055;BME280;44845;51.444;7.460;2023-04-09T02:48:55;100656.19;;;4.66;75.61
59055;BME280;44845;51.444;7.460;2023-04-09T02:51:20;100651.94;;;4.68;75.51
59055;BME280;44845;51.444;7.460;2023-04-09T02:53:45;100649.94;;;4.59;75.83
59055;BME280;44845;51.444;7.460;2023-04-09T02:56:11;100639.72;;;4.65;75.76
59055;BME280;44845;51.444;7.460;2023-04-09T02:58:36;100650.91;;;4.62;75.70
59055;BME280;44845;51.444;7.460;2023-04-09T03:01:02;100647.53;;;4.65;75.71
59055;BME280;44845;51.444;7.460;2023-04-09T03:03:28;100649.16;;;4.61;76.12
59055;BME280;44845;51.444;7.460;2023-04-09T03:05:53;100646.59;;;4.63;76.07
59055;BME280;44845;51.444;7.460;2023-04-09T03:08:19;100645.72;;;4.62;76.26
59055;BME280;44845;51.444;7.460;2023-04-09T03:10:44;100643.09;;;4.62;75.94
59055;BME280;44845;51.444;7.460;2023-04-09T03:13:09;100640.56;;;4.64;75.65
59055;BME280;44845;51.444;7.460;2023-04-09T03:15:34;100629.25;;;4.62;75.31
59055;BME280;44845;51.444;7.460;2023-04-09T03:18:00;100633.44;;;4.57;75.97
59055;BME280;44845;51.444;7.460;2023-04-09T03:20:25;100627.38;;;4.58;75.54
59055;BME280;44845;51.444;7.460;2023-04-09T03:22:51;100635.25;;;4.59;75.65
59055;BME280;44845;51.444;7.460;2023-04-09T03:25:16;100625.81;;;4.63;75.62
59055;BME280;44845;51.444;7.460;2023-04-09T03:27:43;100628.19;;;4.55;75.71
59055;BME280;44845;51.444;7.460;2023-04-09T03:30:09;100628.09;;;4.52;75.17
59055;BME280;44845;51.444;7.460;2023-04-09T03:32:34;100621.31;;;4.57;75.06
59055;BME280;44845;51.444;7.460;2023-04-09T03:35:00;100622.06;;;4.53;74.63
59055;BME280;44845;51.444;7.460;2023-04-09T03:37:25;100622.81;;;4.49;74.53
59055;BME280;44845;51.444;7.460;2023-04-09T03:39:50;100621.91;;;4.47;74.25
59055;BME280;44845;51.444;7.460;2023-04-09T03:42:16;100614.88;;;4.44;73.82
59055;BME280;44845;51.444;7.460;2023-04-09T03:44:41;100619.97;;;4.41;74.24
59055;BME280;44845;51.444;7.460;2023-04-09T03:47:06;100620.50;;;4.29;74.24
59055;BME280;44845;51.444;7.460;2023-04-09T03:49:34;100617.88;;;4.27;74.46
59055;BME280;44845;51.444;7.460;2023-04-09T03:51:59;100616.84;;;4.22;74.23
59055;BME280;44845;51.444;7.460;2023-04-09T03:54:28;100621.91;;;4.18;74.28
59055;BME280;44845;51.444;7.460;2023-04-09T03:56:53;100610.72;;;4.20;74.07
59055;BME280;44845;51.444;7.460;2023-04-09T03:59:19;100614.25;;;4.22;74.17
59055;BME280;44845;51.444;7.460;2023-04-09T04:01:44;100608.59;;;4.08;74.29
59055;BME280;44845;51.444;7.460;2023-04-09T04:04:09;100614.66;;;4.07;74.48
59055;BME280;44845;51.444;7.460;2023-04-09T04:06:35;100611.16;;;4.07;74.31
59055;BME280;44845;51.444;7.460;2023-04-09T04:09:01;100611.13;;;4.05;74.18
59055;BME280;44845;51.444;7.460;2023-04-09T04:11:26;100612.78;;;4.03;74.06
59055;BME280;44845;51.444;7.460;2023-04-09T04:13:52;100611.91;;;4.02;74.70
59055;BME280;44845;51.444;7.460;2023-04-09T04:16:17;100613.59;;;4.00;74.71
59055;BME280;44845;51.444;7.460;2023-04-09T04:18:42;100617.88;;;4.00;74.58
59055;BME280;44845;51.444;7.460;2023-04-09T04:21:14;100618.81;;;4.02;74.48
59055;BME280;44845;51.444;7.460;2023-04-09T04:23:40;100610.09;;;4.00;74.47
59055;BME280;44845;51.444;7.460;2023-04-09T04:26:10;100621.28;;;3.99;74.25
59055;BME280;44845;51.444;7.460;2023-04-09T04:28:39;100616.09;;;3.99;74.34
59055;BME280;44845;51.444;7.460;2023-04-09T04:31:11;100616.06;;;3.97;74.41
59055;BME280;44845;51.444;7.460;2023-04-09T04:33:39;100621.03;;;3.91;74.46
59055;BME280;44845;51.444;7.460;2023-04-09T04:36:09;100621.13;;;3.92;74.31
59055;BME280;44845;51.444;7.460;2023-04-09T04:38:36;100620.22;;;3.92;74.35
59055;BME280;44845;51.444;7.460;2023-04-09T04:41:02;100628.06;;;3.93;74.10
59055;BME280;44845;51.444;7.460;2023-04-09T04:43:27;100630.66;;;3.93;73.48
59055;BME280;44845;51.444;7.460;2023-04-09T04:45:53;100626.41;;;3.96;73.72
59055;BME280;44845;51.444;7.460;2023-04-09T04:48:18;100626.19;;;3.89;73.67
59055;BME280;44845;51.444;7.460;2023-04-09T04:50:44;100628.78;;;3.89;73.71
59055;BME280;44845;51.444;7.460;2023-04-09T04:53:09;100627.13;;;3.91;73.75
59055;BME280;44845;51.444;7.460;2023-04-09T04:55:35;100626.94;;;3.85;73.75
59055;BME280;44845;51.444;7.460;2023-04-09T04:58:01;100629.31;;;3.79;73.92
59055;BME280;44845;51.444;7.460;2023-04-09T05:00:26;100624.13;;;3.79;73.86
59055;BME280;44845;51.444;7.460;2023-04-09T05:02:52;100622.28;;;3.75;74.21
59055;BME280;44845;51.444;7.460;2023-04-09T05:05:17;100629.13;;;3.72;74.36
59055;BME280;44845;51.444;7.460;2023-04-09T05:07:42;100628.22;;;3.70;74.52
59055;BME280;44845;51.444;7.460;2023-04-09T05:10:08;100628.41;;;3.77;74.31
59055;BME280;44845;51.444;7.460;2023-04-09T05:12:34;100627.69;;;3.81;74.58
59055;BME280;44845;51.444;7.460;2023-04-09T05:14:59;100627.75;;;3.84;74.66
59055;BME280;44845;51.444;7.460;2023-04-09T05:17:24;100620.91;;;3.86;74.65
59055;BME280;44845;51.444;7.460;2023-04-09T05:19:51;100624.25;;;3.82;74.74
59055;BME280;44845;51.444;7.460;2023-04-09T05:22:17;100631.22;;;3.83;74.78
59055;BME280;44845;51.444;7.460;2023-04-09T05:24:42;100626.84;;;3.82;75.35
59055;BME280;44845;51.444;7.460;2023-04-09T05:27:07;100621.59;;;3.80;75.47
59055;BME280;44845;51.444;7.460;2023-04-09T05:29:33;100621.84;;;3.88;75.33
59055;BME280;44845;51.444;7.460;2023-04-09T05:31:58;100625.28;;;3.87;75.98
59055;BME280;44845;51.444;7.460;2023-04-09T05:34:23;100630.75;;;3.97;76.26
59055;BME280;44845;51.444;7.460;2023-04-09T05:36:49;100633.34;;;3.97;76.42
59055;BME280;44845;51.444;7.460;2023-04-09T05:39:14;100633.78;;;4.11;76.66
59055;BME280;44845;51.444;7.460;2023-04-09T05:41:39;100632.28;;;4.18;76.81
59055;BME280;44845;51.444;7.460;2023-04-09T05:44:06;100633.28;;;4.23;76.76
59055;BME280;44845;51.444;7.460;2023-04-09T05:46:31;100635.88;;;4.23;76.96
59055;BME280;44845;51.444;7.460;2023-04-09T05:48:56;100637.78;;;4.28;77.29
59055;BME280;44845;51.444;7.460;2023-04-09T05:51:22;100638.84;;;4.35;77.01
59055;BME280;44845;51.444;7.460;2023-04-09T05:53:47;100643.13;;;4.33;77.89
59055;BME280;44845;51.444;7.460;2023-04-09T05:56:13;100642.41;;;4.37;77.43
59055;BME280;44845;51.444;7.460;2023-04-09T05:58:39;100641.78;;;4.46;77.50
59055;BME280;44845;51.444;7.460;2023-04-09T06:01:05;100643.47;;;4.44;77.86
59055;BME280;44845;51.444;7.460;2023-04-09T06:03:30;100641.16;;;4.55;77.21
59055;BME280;44845;51.444;7.460;2023-04-09T06:05:55;100647.47;;;4.64;77.97
59055;BME280;44845;51.444;7.460;2023-04-09T06:08:21;100642.31;;;4.65;77.97
59055;BME280;44845;51.444;7.460;2023-04-09T06:10:46;100643.38;;;4.72;77.93
59055;BME280;44845;51.444;7.460;2023-04-09T06:13:12;100641.75;;;4.76;78.21
59055;BME280;44845;51.444;7.460;2023-04-09T06:15:38;100644.53;;;4.82;78.14
59055;BME280;44845;51.444;7.460;2023-04-09T06:18:03;100645.59;;;4.89;78.07
59055;BME280;44845;51.444;7.460;2023-04-09T06:20:29;100651.75;;;4.92;78.16
59055;BME280;44845;51.444;7.460;2023-04-09T06:22:54;100655.41;;;4.99;78.11
59055;BME280;44845;51.444;7.460;2023-04-09T06:25:20;100649.59;;;5.08;78.07
59055;BME280;44845;51.444;7.460;2023-04-09T06:27:45;100652.41;;;5.16;78.37
59055;BME280;44845;51.444;7.460;2023-04-09T06:30:11;100647.28;;;5.19;78.28
59055;BME280;44845;51.444;7.460;2023-04-09T06:32:36;100643.94;;;5.23;78.33
59055;BME280;44845;51.444;7.460;2023-04-09T06:35:02;100652.91;;;5.35;78.17
59055;BME280;44845;51.444;7.460;2023-04-09T06:37:27;100650.44;;;5.41;78.07
59055;BME280;44845;51.444;7.460;2023-04-09T06:39:53;100647.25;;;5.51;77.94
59055;BME280;44845;51.444;7.460;2023-04-09T06:42:18;100644.72;;;5.55;77.81
59055;BME280;44845;51.444;7.460;2023-04-09T06:44:45;100652.81;;;5.66;78.07
59055;BME280;44845;51.444;7.460;2023-04-09T06:47:10;100653.91;;;5.75;77.94
59055;BME280;44845;51.444;7.460;2023-04-09T06:49:36;100652.31;;;5.81;77.89
59055;BME280;44845;51.444;7.460;2023-04-09T06:52:02;100652.47;;;5.87;78.18
59055;BME280;44845;51.444;7.460;2023-04-09T06:54:27;100657.81;;;5.93;78.00
59055;BME280;44845;51.444;7.460;2023-04-09T06:56:52;100657.13;;;6.01;78.14
59055;BME280;44845;51.444;7.460;2023-04-09T06:59:18;100656.34;;;6.05;77.49
59055;BME280;44845;51.444;7.460;2023-04-09T07:01:43;100660.94;;;6.14;77.53
59055;BME280;44845;51.444;7.460;2023-04-09T07:04:09;100663.66;;;6.18;76.47
59055;BME280;44845;51.444;7.460;2023-04-09T07:06:34;100660.25;;;6.23;76.03
59055;BME280;44845;51.444;7.460;2023-04-09T07:09:00;100655.34;;;6.35;76.90
59055;BME280;44845;51.444;7.460;2023-04-09T07:11:25;100662.38;;;6.39;75.20
59055;BME280;44845;51.444;7.460;2023-04-09T07:13:51;100658.19;;;6.46;75.90
59055;BME280;44845;51.444;7.460;2023-04-09T07:16:16;100655.75;;;6.54;75.59
59055;BME280;44845;51.444;7.460;2023-04-09T07:18:42;100661.09;;;6.60;75.86
59055;BME280;44845;51.444;7.460;2023-04-09T07:21:07;100659.41;;;6.62;75.34
59055;BME280;44845;51.444;7.460;2023-04-09T07:23:35;100665.53;;;6.66;74.50
59055;BME280;44845;51.444;7.460;2023-04-09T07:26:03;100668.47;;;6.80;75.01
59055;BME280;44845;51.444;7.460;2023-04-09T07:28:28;100674.75;;;6.90;75.53
59055;BME280;44845;51.444;7.460;2023-04-09T07:30:53;100674.84;;;6.95;75.72
59055;BME280;44845;51.444;7.460;2023-04-09T07:33:19;100673.16;;;6.97;73.07
59055;BME280;44845;51.444;7.460;2023-04-09T07:35:44;100677.63;;;7.04;74.31
59055;BME280;44845;51.444;7.460;2023-04-09T07:38:11;100685.66;;;7.15;74.17
59055;BME280;44845;51.444;7.460;2023-04-09T07:40:36;100681.41;;;7.19;73.69
59055;BME280;44845;51.444;7.460;2023-04-09T07:43:02;100678.06;;;7.26;74.79
59055;BME280;44845;51.444;7.460;2023-04-09T07:45:27;100668.66;;;7.35;73.94
59055;BME280;44845;51.444;7.460;2023-04-09T07:47:53;100678.28;;;7.39;73.02
59055;BME280;44845;51.444;7.460;2023-04-09T07:50:18;100666.25;;;7.47;73.54
59055;BME280;44845;51.444;7.460;2023-04-09T07:52:43;100667.19;;;7.49;74.21
59055;BME280;44845;51.444;7.460;2023-04-09T07:55:09;100670.75;;;7.54;74.14
59055;BME280;44845;51.444;7.460;2023-04-09T07:57:34;100664.75;;;7.60;73.47
59055;BME280;44845;51.444;7.460;2023-04-09T08:00:00;100663.00;;;7.59;72.91
59055;BME280;44845;51.444;7.460;2023-04-09T08:02:26;100664.16;;;7.77;71.71
59055;BME280;44845;51.444;7.460;2023-04-09T08:04:51;100671.00;;;7.72;71.21
59055;BME280;44845;51.444;7.460;2023-04-09T08:07:17;100660.69;;;7.78;70.90
59055;BME280;44845;51.444;7.460;2023-04-09T08:09:42;100671.16;;;7.80;70.84
59055;BME280;44845;51.444;7.460;2023-04-09T08:12:08;100660.84;;;7.89;69.58
59055;BME280;44845;51.444;7.460;2023-04-09T08:14:33;100663.66;;;8.02;70.64
59055;BME280;44845;51.444;7.460;2023-04-09T08:16:59;100660.22;;;8.03;69.34
59055;BME280;44845;51.444;7.460;2023-04-09T08:19:25;100662.16;;;8.16;70.20
59055;BME280;44845;51.444;7.460;2023-04-09T08:21:51;100661.44;;;8.27;70.08
59055;BME280;44845;51.444;7.460;2023-04-09T08:24:16;100663.16;;;8.25;67.61
59055;BME280;44845;51.444;7.460;2023-04-09T08:26:42;100666.78;;;8.34;67.98
59055;BME280;44845;51.444;7.460;2023-04-09T08:29:09;100659.81;;;8.35;67.85
59055;BME280;44845;51.444;7.460;2023-04-09T08:31:35;100666.00;;;8.40;68.09
59055;BME280;44845;51.444;7.460;2023-04-09T08:34:01;100661.72;;;8.47;68.93
59055;BME280;44845;51.444;7.460;2023-04-09T08:36:26;100661.84;;;8.56;67.02
59055;BME280;44845;51.444;7.460;2023-04-09T08:38:52;100667.84;;;8.51;67.13
59055;BME280;44845;51.444;7.460;2023-04-09T08:41:23;100667.19;;;8.63;67.44
59055;BME280;44845;51.444;7.460;2023-04-09T08:43:50;100666.28;;;8.59;66.18
59055;BME280;44845;51.444;7.460;2023-04-09T08:46:18;100664.56;;;8.63;66.12
59055;BME280;44845;51.444;7.460;2023-04-09T08:48:44;100659.31;;;8.61;66.41
59055;BME280;44845;51.444;7.460;2023-04-09T08:51:15;100661.25;;;8.75;67.28
59055;BME280;44845;51.444;7.460;2023-04-09T08:53:58;100669.91;;;8.71;65.51
59055;BME280;44845;51.444;7.460;2023-04-09T08:56:24;100668.22;;;8.76;66.26
59055;BME280;44845;51.444;7.460;2023-04-09T08:58:51;100665.72;;;8.82;64.74
59055;BME280;44845;51.444;7.460;2023-04-09T09:01:26;100668.44;;;8.92;65.98
59055;BME280;44845;51.444;7.460;2023-04-09T09:04:01;100659.78;;;8.99;63.21
59055;BME280;44845;51.444;7.460;2023-04-09T09:06:30;100665.03;;;8.99;61.14
59055;BME280;44845;51.444;7.460;2023-04-09T09:09:11;100663.34;;;9.07;62.55
59055;BME280;44845;51.444;7.460;2023-04-09T09:11:39;100665.09;;;9.05;61.85
59055;BME280;44845;51.444;7.460;2023-04-09T09:14:07;100659.94;;;9.15;62.14
59055;BME280;44845;51.444;7.460;2023-04-09T09:16:38;100660.81;;;9.14;62.89
59055;BME280;44845;51.444;7.460;2023-04-09T09:19:06;100657.38;;;9.19;63.09
59055;BME280;44845;51.444;7.460;2023-04-09T09:21:32;100658.34;;;9.26;62.59
59055;BME280;44845;51.444;7.460;2023-04-09T09:23:58;100655.75;;;9.28;64.25
59055;BME280;44845;51.444;7.460;2023-04-09T09:26:26;100654.97;;;9.40;63.14
59055;BME280;44845;51.444;7.460;2023-04-09T09:28:53;100649.75;;;9.40;60.56
59055;BME280;44845;51.444;7.460;2023-04-09T09:31:20;100649.81;;;9.49;60.23
59055;BME280;44845;51.444;7.460;2023-04-09T09:33:46;100655.13;;;9.55;59.52
59055;BME280;44845;51.444;7.460;2023-04-09T09:36:13;100650.00;;;9.68;57.12
59055;BME280;44845;51.444;7.460;2023-04-09T09:38:54;100651.84;;;9.82;59.61
59055;BME280;44845;51.444;7.460;2023-04-09T09:41:21;100651.84;;;9.82;57.04
59055;BME280;44845;51.444;7.460;2023-04-09T09:43:47;100649.28;;;9.86;55.40
59055;BME280;44845;51.444;7.460;2023-04-09T09:46:13;100647.56;;;9.93;58.84
59055;BME280;44845;51.444;7.460;2023-04-09T09:48:40;100643.28;;;10.03;60.93
59055;BME280;44845;51.444;7.460;2023-04-09T09:51:10;100652.00;;;10.00;59.78
59055;BME280;44845;51.444;7.460;2023-04-09T09:53:37;100644.16;;;10.03;61.52
59055;BME280;44845;51.444;7.460;2023-04-09T09:56:06;100648.56;;;10.08;62.63
59055;BME280;44845;51.444;7.460;2023-04-09T09:58:43;100638.91;;;10.02;61.43
59055;BME280;44845;51.444;7.460;2023-04-09T10:01:12;100638.94;;;10.07;61.69
59055;BME280;44845;51.444;7.460;2023-04-09T10:03:39;100636.34;;;10.05;61.63
59055;BME280;44845;51.444;7.460;2023-04-09T10:06:05;100634.56;;;10.04;61.10
59055;BME280;44845;51.444;7.460;2023-04-09T10:08:32;100642.44;;;10.09;60.03
59055;BME280;44845;51.444;7.460;2023-04-09T10:10:59;100636.44;;;10.22;60.82
59055;BME280;44845;51.444;7.460;2023-04-09T10:13:29;100639.09;;;10.30;62.17
59055;BME280;44845;51.444;7.460;2023-04-09T10:15:58;100626.88;;;10.29;58.78
59055;BME280;44845;51.444;7.460;2023-04-09T10:18:24;100622.47;;;10.27;61.06
59055;BME280;44845;51.444;7.460;2023-04-09T10:20:56;100619.00;;;10.31;60.33
59055;BME280;44845;51.444;7.460;2023-04-09T10:23:38;100618.13;;;10.33;59.43
59055;BME280;44845;51.444;7.460;2023-04-09T10:26:05;100615.50;;;10.35;58.36
59055;BME280;44845;51.444;7.460;2023-04-09T10:28:31;100601.56;;;10.42;56.19
59055;BME280;44845;51.444;7.460;2023-04-09T10:30:57;100612.03;;;10.36;56.97
59055;BME280;44845;51.444;7.460;2023-04-09T10:33:23;100607.69;;;10.41;56.90
59055;BME280;44845;51.444;7.460;2023-04-09T10:35:54;100604.22;;;10.48;56.98
59055;BME280;44845;51.444;7.460;2023-04-09T10:38:36;100607.72;;;10.47;59.23
59055;BME280;44845;51.444;7.460;2023-04-09T10:41:26;100599.84;;;10.46;55.82
59055;BME280;44845;51.444;7.460;2023-04-09T10:43:52;100597.28;;;10.57;53.82
59055;BME280;44845;51.444;7.460;2023-04-09T10:46:44;100586.84;;;10.63;53.78
59055;BME280;44845;51.444;7.460;2023-04-09T10:49:24;100587.72;;;10.59;53.01
59055;BME280;44845;51.444;7.460;2023-04-09T10:51:51;100590.31;;;10.61;53.40
59055;BME280;44845;51.444;7.460;2023-04-09T10:59:37;100576.38;;;10.71;54.97
59055;BME280;44845;51.444;7.460;2023-04-09T11:02:08;100584.25;;;10.73;52.49
59055;BME280;44845;51.444;7.460;2023-04-09T11:04:38;100577.25;;;10.68;52.71
59055;BME280;44845;51.444;7.460;2023-04-09T11:07:06;100587.72;;;10.70;51.49
59055;BME280;44845;51.444;7.460;2023-04-09T11:09:35;100579.00;;;10.73;50.35
59055;BME280;44845;51.444;7.460;2023-04-09T11:12:00;100576.41;;;10.80;51.30
59055;BME280;44845;51.444;7.460;2023-04-09T11:14:27;100579.03;;;10.87;52.61
59055;BME280;44845;51.444;7.460;2023-04-09T11:16:53;100589.53;;;10.95;51.67
59055;BME280;44845;51.444;7.460;2023-04-09T11:19:19;100583.44;;;10.96;53.51
59055;BME280;44845;51.444;7.460;2023-04-09T11:21:46;100578.19;;;10.97;54.04
59055;BME280;44845;51.444;7.460;2023-04-09T11:24:12;100577.34;;;11.03;52.58
59055;BME280;44845;51.444;7.460;2023-04-09T11:26:38;100570.31;;;11.11;54.61
59055;BME280;44845;51.444;7.460;2023-04-09T11:29:04;100565.09;;;11.24;56.73
59055;BME280;44845;51.444;7.460;2023-04-09T11:31:31;100559.84;;;11.27;57.38
59055;BME280;44845;51.444;7.460;2023-04-09T11:33:56;100570.34;;;11.27;55.51
59055;BME280;44845;51.444;7.460;2023-04-09T11:36:22;100567.75;;;11.30;51.26
59055;BME280;44845;51.444;7.460;2023-04-09T11:38:48;100568.59;;;11.17;51.87
59055;BME280;44845;51.444;7.460;2023-04-09T11:41:14;100572.97;;;11.22;52.54
59055;BME280;44845;51.444;7.460;2023-04-09T11:43:40;100565.97;;;11.37;55.75
59055;BME280;44845;51.444;7.460;2023-04-09T11:46:06;100562.47;;;11.36;52.64
59055;BME280;44845;51.444;7.460;2023-04-09T11:48:32;100559.88;;;11.30;50.14
59055;BME280;44845;51.444;7.460;2023-04-09T11:50:57;100559.84;;;11.40;52.17
59055;BME280;44845;51.444;7.460;2023-04-09T11:53:29;100563.34;;;11.42;52.91
59055;BME280;44845;51.444;7.460;2023-04-09T11:55:55;100549.38;;;11.43;50.16
59055;BME280;44845;51.444;7.460;2023-04-09T11:58:21;100552.84;;;11.54;49.55
59055;BME280;44845;51.444;7.460;2023-04-09T12:00:47;100554.59;;;11.57;50.35
59055;BME280;44845;51.444;7.460;2023-04-09T12:03:13;100566.88;;;11.59;54.34
59055;BME280;44845;51.444;7.460;2023-04-09T12:05:44;100564.22;;;11.59;55.13
59055;BME280;44845;51.444;7.460;2023-04-09T12:08:12;100562.47;;;11.68;55.14
59055;BME280;44845;51.444;7.460;2023-04-09T12:10:41;100557.22;;;11.71;54.08
59055;BME280;44845;51.444;7.460;2023-04-09T12:13:08;100556.34;;;11.69;52.74
59055;BME280;44845;51.444;7.460;2023-04-09T12:15:39;100553.72;;;11.61;49.76
59055;BME280;44845;51.444;7.460;2023-04-09T12:18:11;100545.81;;;11.63;49.47
59055;BME280;44845;51.444;7.460;2023-04-09T12:23:04;100552.81;;;11.70;48.86
59055;BME280;44845;51.444;7.460;2023-04-09T12:25:32;100547.56;;;11.71;48.03
59055;BME280;44845;51.444;7.460;2023-04-09T12:27:58;100546.69;;;11.76;48.34
59055;BME280;44845;51.444;7.460;2023-04-09T12:30:24;100548.47;;;11.72;48.55
59055;BME280;44845;51.444;7.460;2023-04-09T12:32:50;100542.28;;;11.86;52.47
59055;BME280;44845;51.444;7.460;2023-04-09T12:35:16;100542.31;;;11.84;52.99
59055;BME280;44845;51.444;7.460;2023-04-09T12:37:42;100546.69;;;11.87;52.95
59055;BME280;44845;51.444;7.460;2023-04-09T12:40:08;100547.56;;;11.70;48.63
59055;BME280;44845;51.444;7.460;2023-04-09T12:42:34;100538.78;;;11.77;48.67
59055;BME280;44845;51.444;7.460;2023-04-09T12:44:59;100543.19;;;11.81;50.76
59055;BME280;44845;51.444;7.460;2023-04-09T12:47:25;100535.28;;;11.94;52.24
59055;BME280;44845;51.444;7.460;2023-04-09T12:49:52;100538.75;;;12.05;54.51
59055;BME280;44845;51.444;7.460;2023-04-09T12:52:17;100530.00;;;12.00;53.30
59055;BME280;44845;51.444;7.460;2023-04-09T12:54:43;100537.03;;;11.97;49.85
59055;BME280;44845;51.444;7.460;2023-04-09T12:57:09;100529.13;;;11.98;50.57
59055;BME280;44845;51.444;7.460;2023-04-09T12:59:34;100524.72;;;11.97;48.86
59055;BME280;44845;51.444;7.460;2023-04-09T13:02:00;100527.38;;;11.96;48.95
59055;BME280;44845;51.444;7.460;2023-04-09T13:04:25;100542.28;;;11.89;48.56
59055;BME280;44845;51.444;7.460;2023-04-09T13:06:51;100525.63;;;11.98;45.58